createdAt,value
2023-02-22T00:01:34.163Z,99.90
2023-02-22T00:04:02.719Z,99.90
2023-02-22T00:06:31.063Z,99.90
2023-02-22T00:08:58.637Z,99.90
2023-02-22T00:11:26.232Z,99.90
2023-02-22T00:13:57.125Z,99.90
2023-02-22T00:16:25.638Z,99.90
2023-02-22T00:18:53.360Z,99.90
2023-02-22T00:21:20.558Z,99.90
2023-02-22T00:23:48.588Z,99.90
2023-02-22T00:26:23.454Z,99.90
2023-02-22T00:28:53.212Z,99.90
2023-02-22T00:31:21.347Z,99.90
2023-02-22T00:33:48.312Z,99.90
2023-02-22T00:36:15.378Z,99.90
2023-02-22T00:38:42.476Z,99.90
2023-02-22T00:41:09.940Z,99.90
2023-02-22T00:43:36.688Z,99.90
2023-02-22T00:46:03.778Z,99.90
2023-02-22T00:48:30.681Z,99.90
2023-02-22T00:50:57.505Z,99.90
2023-02-22T00:53:25.318Z,99.90
2023-02-22T00:55:52.965Z,99.90
2023-02-22T00:58:20.500Z,99.90
2023-02-22T01:00:47.814Z,99.90
2023-02-22T01:03:20.455Z,99.90
2023-02-22T01:05:47.516Z,99.90
2023-02-22T01:08:16.130Z,99.90
2023-02-22T01:10:43.470Z,99.90
2023-02-22T01:13:12.810Z,99.90
2023-02-22T01:15:42.583Z,99.90
2023-02-22T01:18:10.144Z,99.90
2023-02-22T01:20:37.275Z,99.90
2023-02-22T01:23:07.025Z,99.90
2023-02-22T01:25:34.576Z,99.90
2023-02-22T01:28:02.918Z,99.90
2023-02-22T01:30:33.145Z,99.90
2023-02-22T01:33:01.394Z,99.90
2023-02-22T01:35:31.437Z,99.90
2023-02-22T01:37:58.916Z,99.90
2023-02-22T01:40:33.226Z,99.90
2023-02-22T01:43:02.708Z,99.90
2023-02-22T01:45:35.151Z,99.90
2023-02-22T01:48:25.117Z,99.90
2023-02-22T01:51:10.903Z,99.90
2023-02-22T01:53:46.493Z,99.90
2023-02-22T01:56:13.865Z,99.90
2023-02-22T01:58:44.093Z,99.90
2023-02-22T02:01:11.908Z,99.90
2023-02-22T02:03:40.839Z,99.90
2023-02-22T02:06:14.066Z,99.90
2023-02-22T02:08:49.892Z,99.90
2023-02-22T02:11:20.213Z,99.90
2023-02-22T02:13:49.798Z,99.90
2023-02-22T02:16:16.752Z,99.90
2023-02-22T02:18:43.603Z,99.90
2023-02-22T02:21:13.040Z,99.90
2023-02-22T02:24:04.940Z,99.90
2023-02-22T02:26:34.457Z,99.90
2023-02-22T02:29:11.336Z,99.90
2023-02-22T02:31:50.482Z,99.90
2023-02-22T02:34:28.776Z,99.90
2023-02-22T02:37:15.002Z,99.90
2023-02-22T02:39:53.128Z,99.90
2023-02-22T02:42:25.877Z,99.90
2023-02-22T02:45:00.878Z,99.90
2023-02-22T02:47:30.077Z,99.90
2023-02-22T02:50:11.427Z,99.90
2023-02-22T02:52:41.101Z,99.90
2023-02-22T02:55:11.306Z,99.90
2023-02-22T02:57:39.041Z,99.90
2023-02-22T03:00:22.432Z,99.90
2023-02-22T03:03:10.366Z,99.90
2023-02-22T03:06:04.897Z,99.90
2023-02-22T03:08:52.659Z,99.90
2023-02-22T03:11:28.673Z,99.90
2023-02-22T03:14:07.345Z,99.90
2023-02-22T03:16:56.615Z,99.90
2023-02-22T03:19:47.581Z,99.90
2023-02-22T03:22:24.958Z,99.90
2023-02-22T03:25:08.944Z,99.90
2023-02-22T03:27:50.434Z,99.90
2023-02-22T03:30:28.175Z,99.90
2023-02-22T03:33:09.132Z,99.90
2023-02-22T03:35:39.238Z,99.90
2023-02-22T03:38:09.514Z,99.90
2023-02-22T03:40:44.848Z,99.90
2023-02-22T03:43:16.160Z,99.90
2023-02-22T03:45:46.172Z,99.90
2023-02-22T03:48:36.503Z,99.90
2023-02-22T03:51:04.498Z,99.90
2023-02-22T03:53:33.903Z,99.90
2023-02-22T03:56:02.951Z,99.90
2023-02-22T03:58:34.501Z,99.90
2023-02-22T04:01:01.375Z,99.90
2023-02-22T04:03:28.037Z,99.90
2023-02-22T04:05:54.780Z,99.90
2023-02-22T04:08:21.492Z,99.90
2023-02-22T04:10:48.302Z,99.90
2023-02-22T04:13:15.157Z,99.90
2023-02-22T04:15:42.164Z,99.90
2023-02-22T04:18:08.930Z,99.90
2023-02-22T04:20:35.616Z,99.90
2023-02-22T04:23:02.418Z,99.90
2023-02-22T04:25:29.232Z,99.90
2023-02-22T04:27:56.004Z,99.90
2023-02-22T04:30:23.428Z,99.90
2023-02-22T04:32:50.296Z,99.90
2023-02-22T04:35:17.046Z,99.90
2023-02-22T04:37:43.727Z,99.90
2023-02-22T04:40:11.572Z,99.90
2023-02-22T04:42:39.022Z,99.90
2023-02-22T04:45:08.110Z,99.90
2023-02-22T04:47:36.016Z,99.90
2023-02-22T04:50:04.358Z,99.90
2023-02-22T04:52:31.458Z,99.90
2023-02-22T04:54:58.391Z,99.90
2023-02-22T04:57:25.099Z,99.90
2023-02-22T04:59:51.857Z,99.90
2023-02-22T05:02:19.039Z,99.90
2023-02-22T05:04:45.929Z,99.90
2023-02-22T05:07:12.964Z,99.90
2023-02-22T05:09:39.680Z,99.90
2023-02-22T05:12:06.753Z,99.90
2023-02-22T05:14:33.542Z,99.90
2023-02-22T05:17:01.776Z,99.90
2023-02-22T05:19:28.541Z,99.90
2023-02-22T05:21:56.501Z,99.90
2023-02-22T05:24:23.481Z,99.90
2023-02-22T05:26:51.359Z,99.90
2023-02-22T05:29:18.266Z,99.90
2023-02-22T05:31:45.062Z,99.90
2023-02-22T05:34:12.161Z,99.90
2023-02-22T05:36:38.890Z,99.90
2023-02-22T05:39:05.726Z,99.90
2023-02-22T05:41:32.606Z,99.90
2023-02-22T05:43:59.273Z,99.90
2023-02-22T05:46:25.997Z,99.90
2023-02-22T05:48:52.704Z,99.90
2023-02-22T05:51:19.761Z,99.90
2023-02-22T05:53:46.548Z,99.90
2023-02-22T05:56:13.211Z,99.90
2023-02-22T05:58:39.904Z,99.90
2023-02-22T06:01:06.552Z,99.90
2023-02-22T06:03:33.256Z,99.90
2023-02-22T06:05:59.948Z,99.90
2023-02-22T06:08:26.888Z,99.90
2023-02-22T06:10:54.461Z,99.90
2023-02-22T06:13:21.158Z,99.90
2023-02-22T06:15:48.067Z,99.90
2023-02-22T06:18:14.812Z,99.90
2023-02-22T06:20:41.624Z,99.90
2023-02-22T06:23:08.464Z,99.90
2023-02-22T06:25:35.174Z,99.90
2023-02-22T06:28:02.264Z,99.90
2023-02-22T06:30:30.406Z,99.90
2023-02-22T06:32:57.654Z,99.90
2023-02-22T06:35:24.489Z,99.90
2023-02-22T06:37:51.383Z,99.90
2023-02-22T06:40:18.297Z,99.90
2023-02-22T06:42:48.463Z,99.90
2023-02-22T06:45:16.922Z,99.90
2023-02-22T06:47:43.668Z,99.90
2023-02-22T06:50:26.127Z,99.90
2023-02-22T06:52:52.941Z,99.90
2023-02-22T06:55:22.007Z,99.90
2023-02-22T06:57:48.849Z,99.90
2023-02-22T07:00:19.029Z,99.90
2023-02-22T07:02:48.373Z,99.90
2023-02-22T07:05:17.207Z,99.90
2023-02-22T07:07:44.251Z,99.90
2023-02-22T07:10:23.521Z,99.90
2023-02-22T07:12:52.531Z,99.90
2023-02-22T07:15:21.651Z,99.90
2023-02-22T07:17:48.520Z,99.90
2023-02-22T07:20:15.535Z,99.90
2023-02-22T07:22:42.277Z,99.90
2023-02-22T07:25:11.278Z,99.90
2023-02-22T07:27:39.580Z,99.90
2023-02-22T07:30:08.168Z,99.90
2023-02-22T07:32:35.167Z,99.90
2023-02-22T07:35:02.942Z,99.90
2023-02-22T07:37:30.306Z,99.90
2023-02-22T07:39:57.062Z,99.90
2023-02-22T07:42:23.853Z,99.90
2023-02-22T07:44:50.562Z,99.90
2023-02-22T07:47:17.218Z,99.90
2023-02-22T07:49:43.938Z,99.90
2023-02-22T07:52:12.607Z,99.90
2023-02-22T07:54:39.358Z,99.90
2023-02-22T07:57:06.063Z,99.90
2023-02-22T07:59:33.925Z,99.90
2023-02-22T08:02:00.673Z,99.90
2023-02-22T08:04:27.397Z,99.90
2023-02-22T08:06:54.114Z,99.90
2023-02-22T08:09:20.828Z,99.90
2023-02-22T08:11:47.499Z,99.90
2023-02-22T08:14:17.114Z,99.90
2023-02-22T08:16:43.861Z,99.90
2023-02-22T08:19:10.594Z,99.90
2023-02-22T08:21:37.278Z,99.90
2023-02-22T08:24:04.473Z,99.90
2023-02-22T08:26:31.375Z,99.90
2023-02-22T08:28:58.048Z,99.90
2023-02-22T08:31:24.821Z,99.90
2023-02-22T08:33:51.598Z,99.90
2023-02-22T08:36:18.685Z,99.90
2023-02-22T08:38:45.365Z,99.90
2023-02-22T08:41:12.227Z,99.90
2023-02-22T08:43:39.144Z,99.90
2023-02-22T08:46:05.877Z,99.90
2023-02-22T08:48:32.647Z,99.90
2023-02-22T08:50:59.414Z,99.90
2023-02-22T08:53:26.179Z,99.90
2023-02-22T08:55:53.267Z,99.90
2023-02-22T08:58:20.013Z,99.90
2023-02-22T09:00:47.273Z,99.90
2023-02-22T09:03:15.238Z,99.90
2023-02-22T09:05:43.688Z,99.90
2023-02-22T09:08:10.521Z,99.90
2023-02-22T09:10:37.252Z,99.90
2023-02-22T09:13:04.827Z,99.90
2023-02-22T09:15:32.838Z,99.90
2023-02-22T09:18:00.002Z,99.90
2023-02-22T09:20:27.777Z,99.90
2023-02-22T09:22:55.269Z,99.90
2023-02-22T09:25:22.930Z,99.90
2023-02-22T09:27:51.458Z,99.90
2023-02-22T09:30:33.390Z,99.90
2023-02-22T09:33:10.560Z,99.90
2023-02-22T09:35:42.226Z,99.90
2023-02-22T09:38:10.310Z,99.90
2023-02-22T09:40:45.188Z,99.90
2023-02-22T09:43:33.910Z,99.90
2023-02-22T09:46:11.902Z,99.90
2023-02-22T09:48:50.752Z,99.90
2023-02-22T09:51:20.642Z,99.90
2023-02-22T09:53:51.022Z,99.90
2023-02-22T09:56:20.734Z,99.90
2023-02-22T09:58:54.561Z,99.90
2023-02-22T10:01:29.845Z,99.90
2023-02-22T10:04:23.941Z,99.90
2023-02-22T10:07:26.147Z,99.90
2023-02-22T10:09:57.469Z,99.90
2023-02-22T10:12:50.383Z,99.90
2023-02-22T10:15:26.127Z,99.90
2023-02-22T10:18:22.299Z,99.90
2023-02-22T10:20:57.632Z,99.90
2023-02-22T10:23:52.032Z,99.70
2023-02-22T10:26:29.420Z,98.70
2023-02-22T10:29:09.033Z,98.50
2023-02-22T10:31:45.824Z,97.10
2023-02-22T10:34:23.415Z,96.80
2023-02-22T10:36:55.743Z,96.00
2023-02-22T10:39:36.493Z,95.50
2023-02-22T10:42:09.449Z,93.40
2023-02-22T10:44:37.890Z,92.70
2023-02-22T10:47:07.943Z,92.10
2023-02-22T10:49:57.544Z,92.10
2023-02-22T10:52:29.360Z,91.40
2023-02-22T10:55:13.623Z,90.20
2023-02-22T10:57:44.004Z,90.50
2023-02-22T11:00:37.309Z,88.20
2023-02-22T11:03:17.302Z,85.70
2023-02-22T11:05:44.240Z,84.60
2023-02-22T11:08:16.811Z,81.50
2023-02-22T11:10:43.493Z,79.10
2023-02-22T11:13:25.869Z,80.50
2023-02-22T11:15:54.626Z,77.60
2023-02-22T11:18:34.205Z,74.60
2023-02-22T11:21:03.517Z,72.20
2023-02-22T11:23:30.780Z,69.00
2023-02-22T11:26:07.941Z,68.50
2023-02-22T11:28:35.492Z,67.10
2023-02-22T11:31:23.476Z,67.00
2023-02-22T11:33:59.539Z,64.30
2023-02-22T11:36:41.283Z,62.70
2023-02-22T11:39:35.552Z,59.80
2023-02-22T11:42:26.065Z,57.60
2023-02-22T11:45:20.650Z,56.20
2023-02-22T11:47:59.044Z,55.30
2023-02-22T11:50:31.505Z,54.30
2023-02-22T11:53:26.666Z,53.30
2023-02-22T11:56:35.647Z,52.40
2023-02-22T11:59:40.841Z,51.10
2023-02-22T12:02:37.416Z,49.70
2023-02-22T12:05:19.455Z,49.90
2023-02-22T12:07:56.457Z,48.60
2023-02-22T12:10:34.890Z,47.40
2023-02-22T12:13:10.366Z,46.30
2023-02-22T12:15:52.165Z,46.20
2023-02-22T12:18:36.439Z,45.60
2023-02-22T12:21:09.596Z,45.40
2023-02-22T12:23:50.701Z,44.50
2023-02-22T12:26:20.765Z,43.90
2023-02-22T12:28:59.272Z,43.10
2023-02-22T12:31:50.990Z,43.30
2023-02-22T12:34:28.389Z,41.30
2023-02-22T12:36:58.825Z,41.30
2023-02-22T12:39:53.160Z,41.20
2023-02-22T12:42:29.598Z,41.50
2023-02-22T12:45:19.965Z,40.90
2023-02-22T12:48:21.612Z,40.80
2023-02-22T12:50:56.220Z,40.40
2023-02-22T12:53:31.592Z,39.50
2023-02-22T12:56:24.050Z,39.10
2023-02-22T12:59:03.475Z,39.50
2023-02-22T13:01:40.372Z,39.20
2023-02-22T13:04:20.202Z,39.50
2023-02-22T13:06:53.985Z,39.30
2023-02-22T13:10:05.074Z,39.00
2023-02-22T13:12:52.678Z,39.60
2023-02-22T13:15:23.979Z,39.10
2023-02-22T13:18:05.733Z,39.30
2023-02-22T13:20:35.478Z,39.40
2023-02-22T13:23:28.574Z,39.50
2023-02-22T13:26:15.079Z,40.20
2023-02-22T13:29:12.048Z,40.70
2023-02-22T13:32:17.772Z,40.60
2023-02-22T13:35:09.171Z,40.90
2023-02-22T13:37:41.382Z,40.40
2023-02-22T13:40:19.965Z,40.10
2023-02-22T13:42:52.408Z,40.00
2023-02-22T13:45:37.101Z,38.90
2023-02-22T13:48:10.156Z,38.10
2023-02-22T13:50:55.761Z,36.60
2023-02-22T13:53:28.161Z,35.10
2023-02-22T13:55:58.441Z,34.70
2023-02-22T13:58:25.756Z,34.10
2023-02-22T14:00:59.148Z,33.40
2023-02-22T14:03:40.720Z,33.00
2023-02-22T14:06:36.848Z,31.60
2023-02-22T14:09:34.174Z,31.50
2023-02-22T14:12:00.931Z,31.30
2023-02-22T14:14:27.706Z,32.20
2023-02-22T14:17:20.611Z,32.20
2023-02-22T14:20:17.278Z,32.30
2023-02-22T14:22:47.619Z,32.90
2023-02-22T14:25:30.022Z,33.20
2023-02-22T14:27:57.976Z,32.90
2023-02-22T14:30:28.010Z,32.70
2023-02-22T14:32:54.964Z,32.60
2023-02-22T14:35:28.743Z,32.00
2023-02-22T14:38:00.874Z,31.90
2023-02-22T14:40:34.877Z,31.60
2023-02-22T14:43:14.900Z,31.30
2023-02-22T14:45:49.659Z,30.50
2023-02-22T14:48:39.366Z,30.00
2023-02-22T14:51:25.132Z,30.20
2023-02-22T14:53:59.864Z,30.40
2023-02-22T14:56:53.790Z,31.20
2023-02-22T14:59:26.113Z,31.50
2023-02-22T15:02:13.117Z,32.10
2023-02-22T15:04:44.192Z,32.40
2023-02-22T15:07:28.140Z,32.80
2023-02-22T15:10:17.838Z,32.80
2023-02-22T15:13:10.772Z,33.10
2023-02-22T15:15:49.754Z,33.30
2023-02-22T15:18:27.261Z,33.60
2023-02-22T15:21:06.554Z,33.80
2023-02-22T15:23:49.036Z,33.80
2023-02-22T15:26:37.284Z,34.50
2023-02-22T15:29:10.821Z,34.10
2023-02-22T15:31:39.467Z,34.50
2023-02-22T15:34:29.775Z,35.00
2023-02-22T15:37:06.017Z,34.70
2023-02-22T15:39:34.837Z,34.40
2023-02-22T15:42:03.979Z,35.50
2023-02-22T15:44:40.246Z,35.60
2023-02-22T15:47:11.553Z,36.40
2023-02-22T15:49:38.418Z,36.40
2023-02-22T15:52:25.038Z,36.10
2023-02-22T15:54:52.800Z,36.30
2023-02-22T15:57:25.552Z,37.40
2023-02-22T15:59:55.969Z,37.30
2023-02-22T16:02:30.310Z,37.30
2023-02-22T16:05:06.575Z,37.30
2023-02-22T16:07:37.134Z,38.60
2023-02-22T16:10:09.262Z,37.90
2023-02-22T16:12:36.173Z,38.00
2023-02-22T16:15:03.823Z,38.70
2023-02-22T16:17:49.468Z,39.00
2023-02-22T16:20:24.855Z,38.90
2023-02-22T16:22:51.733Z,39.20
2023-02-22T16:25:18.519Z,39.50
2023-02-22T16:27:49.388Z,39.60
2023-02-22T16:30:24.725Z,40.10
2023-02-22T16:32:54.158Z,40.40
2023-02-22T16:35:21.601Z,40.70
2023-02-22T16:37:50.551Z,41.30
2023-02-22T16:40:27.466Z,41.80
2023-02-22T16:42:54.314Z,42.10
2023-02-22T16:45:21.987Z,42.40
2023-02-22T16:47:53.607Z,42.90
2023-02-22T16:50:21.875Z,43.60
2023-02-22T16:52:48.751Z,44.20
2023-02-22T16:55:18.867Z,44.40
2023-02-22T16:57:46.355Z,45.00
2023-02-22T17:00:21.585Z,46.20
2023-02-22T17:02:48.584Z,47.30
2023-02-22T17:05:16.692Z,47.60
2023-02-22T17:07:43.570Z,48.10
2023-02-22T17:10:17.489Z,48.90
2023-02-22T17:12:53.315Z,49.80
2023-02-22T17:15:23.822Z,50.10
2023-02-22T17:17:54.956Z,50.70
2023-02-22T17:20:30.094Z,51.10
2023-02-22T17:23:04.874Z,51.70
2023-02-22T17:25:38.983Z,52.70
2023-02-22T17:28:06.687Z,53.60
2023-02-22T17:30:33.773Z,54.20
2023-02-22T17:33:03.650Z,54.70
2023-02-22T17:35:36.309Z,55.50
2023-02-22T17:38:06.216Z,56.60
2023-02-22T17:40:34.737Z,57.70
2023-02-22T17:43:01.919Z,58.60
2023-02-22T17:45:29.657Z,59.70
2023-02-22T17:47:59.169Z,60.80
2023-02-22T17:50:26.833Z,62.20
2023-02-22T17:52:53.819Z,63.50
2023-02-22T17:55:21.737Z,64.30
2023-02-22T17:57:58.210Z,65.40
2023-02-22T18:00:33.000Z,67.20
2023-02-22T18:03:03.113Z,68.20
2023-02-22T18:05:32.989Z,69.40
2023-02-22T18:08:00.043Z,70.10
2023-02-22T18:10:27.280Z,71.90
2023-02-22T18:12:55.036Z,72.70
2023-02-22T18:15:21.749Z,72.70
2023-02-22T18:17:48.938Z,74.60
2023-02-22T18:20:40.016Z,75.10
2023-02-22T18:23:08.758Z,75.80
2023-02-22T18:25:36.914Z,76.90
2023-02-22T18:28:06.343Z,78.60
2023-02-22T18:30:37.965Z,79.50
2023-02-22T18:33:04.938Z,80.30
2023-02-22T18:35:31.795Z,81.60
2023-02-22T18:37:58.559Z,82.30
2023-02-22T18:40:25.263Z,83.20
2023-02-22T18:42:51.960Z,84.00
2023-02-22T18:45:19.317Z,85.10
2023-02-22T18:47:46.005Z,87.20
2023-02-22T18:50:13.583Z,89.30
2023-02-22T18:52:46.632Z,90.20
2023-02-22T18:55:19.016Z,90.60
2023-02-22T18:57:46.528Z,91.50
2023-02-22T19:00:16.491Z,92.00
2023-02-22T19:02:43.565Z,92.60
2023-02-22T19:05:11.756Z,93.10
2023-02-22T19:07:39.066Z,94.30
2023-02-22T19:10:07.030Z,94.70
2023-02-22T19:12:33.962Z,95.40
2023-02-22T19:15:00.993Z,96.10
2023-02-22T19:17:29.360Z,96.70
2023-02-22T19:19:56.591Z,97.20
2023-02-22T19:22:26.241Z,97.50
2023-02-22T19:24:54.179Z,98.60
2023-02-22T19:27:21.876Z,99.40
2023-02-22T19:29:49.486Z,99.90
2023-02-22T19:32:17.462Z,99.90
2023-02-22T19:34:44.595Z,99.90
2023-02-22T19:37:13.003Z,99.90
2023-02-22T19:39:42.195Z,99.90
2023-02-22T19:42:10.272Z,99.90
2023-02-22T19:44:37.390Z,99.90
2023-02-22T19:47:08.933Z,99.90
2023-02-22T19:49:41.020Z,99.90
2023-02-22T19:52:07.704Z,99.90
2023-02-22T19:54:34.478Z,99.90
2023-02-22T19:57:01.348Z,99.90
2023-02-22T19:59:29.027Z,99.90
2023-02-22T20:01:56.563Z,99.90
2023-02-22T20:04:24.208Z,99.90
2023-02-22T20:06:57.522Z,99.90
2023-02-22T20:09:43.198Z,99.90
2023-02-22T20:12:09.949Z,99.90
2023-02-22T20:14:37.292Z,99.90
2023-02-22T20:17:04.981Z,99.90
2023-02-22T20:19:31.955Z,99.90
2023-02-22T20:22:00.260Z,99.90
2023-02-22T20:24:27.660Z,99.90
2023-02-22T20:26:56.520Z,99.90
2023-02-22T20:29:29.511Z,99.90
2023-02-22T20:32:00.937Z,99.90
2023-02-22T20:34:32.432Z,99.90
2023-02-22T20:37:00.608Z,99.90
2023-02-22T20:39:27.400Z,99.90
2023-02-22T20:41:54.629Z,99.90
2023-02-22T20:44:21.991Z,99.90
2023-02-22T20:46:49.019Z,99.90
2023-02-22T20:49:17.839Z,99.90
2023-02-22T20:51:46.346Z,99.90
2023-02-22T20:54:13.822Z,99.90
2023-02-22T20:56:42.782Z,99.90
2023-02-22T20:59:12.985Z,99.90
2023-02-22T21:01:40.144Z,99.90
2023-02-22T21:04:10.000Z,99.90
2023-02-22T21:06:38.215Z,99.90
2023-02-22T21:09:08.890Z,99.90
2023-02-22T21:11:36.038Z,99.90
2023-02-22T21:14:03.703Z,99.90
2023-02-22T21:16:34.140Z,99.90
2023-02-22T21:19:03.477Z,99.90
2023-02-22T21:21:30.987Z,99.90
2023-02-22T21:24:02.492Z,99.90
2023-02-22T21:26:31.528Z,99.90
2023-02-22T21:29:00.788Z,99.90
2023-02-22T21:31:28.616Z,99.90
2023-02-22T21:33:57.763Z,99.90
2023-02-22T21:36:25.935Z,99.90
2023-02-22T21:39:18.118Z,99.90
2023-02-22T21:41:52.110Z,99.90
2023-02-22T21:44:21.693Z,99.90
2023-02-22T21:46:49.698Z,99.90
2023-02-22T21:49:17.524Z,99.90
2023-02-22T21:51:44.864Z,99.90
2023-02-22T21:54:12.544Z,99.90
2023-02-22T21:56:41.355Z,99.90
2023-02-22T21:59:12.014Z,99.90
2023-02-22T22:01:47.807Z,99.90
2023-02-22T22:04:20.277Z,99.90
2023-02-22T22:06:51.177Z,99.90
2023-02-22T22:09:23.633Z,99.90
2023-02-22T22:11:51.755Z,99.90
2023-02-22T22:14:21.204Z,99.90
2023-02-22T22:16:49.907Z,99.90
2023-02-22T22:19:17.032Z,99.90
2023-02-22T22:21:43.940Z,99.90
2023-02-22T22:24:11.137Z,99.90
2023-02-22T22:26:38.737Z,99.90
2023-02-22T22:29:06.099Z,99.90
2023-02-22T22:31:33.149Z,99.90
2023-02-22T22:33:59.949Z,99.90
2023-02-22T22:36:27.420Z,99.90
2023-02-22T22:38:57.426Z,99.90
2023-02-22T22:41:25.012Z,99.90
2023-02-22T22:43:54.021Z,99.90
2023-02-22T22:46:22.006Z,99.90
2023-02-22T22:48:48.737Z,99.90
2023-02-22T22:51:20.773Z,99.90
2023-02-22T22:53:49.683Z,99.90
2023-02-22T22:56:28.977Z,99.90
2023-02-22T22:58:58.128Z,99.90
2023-02-22T23:01:31.567Z,99.90
2023-02-22T23:04:02.150Z,99.90
2023-02-22T23:06:39.887Z,99.90
2023-02-22T23:09:19.584Z,99.90
2023-02-22T23:11:50.658Z,99.90
2023-02-22T23:14:20.951Z,99.90
2023-02-22T23:16:53.759Z,99.90
2023-02-22T23:19:20.517Z,99.90
2023-02-22T23:21:49.333Z,99.90
2023-02-22T23:24:19.326Z,99.90
2023-02-22T23:26:49.457Z,99.90
2023-02-22T23:29:18.753Z,99.90
2023-02-22T23:31:48.303Z,99.90
2023-02-22T23:34:20.988Z,99.90
2023-02-22T23:36:48.526Z,99.90
2023-02-22T23:39:18.074Z,99.90
2023-02-22T23:41:44.854Z,99.90
2023-02-22T23:44:17.350Z,99.90
2023-02-22T23:46:48.380Z,99.90
2023-02-22T23:49:20.467Z,99.90
2023-02-22T23:51:48.508Z,99.90
2023-02-22T23:54:19.267Z,99.90
2023-02-22T23:57:12.865Z,99.90
2023-02-22T23:59:42.453Z,99.90
